sensor_id;sensor_type;location;lat;lon;timestamp;pressure;altitude;pressure_sealevel;temperature;humidity
62791;BME280;48830;53.426;10.300;2024-02-14T00:01:13;101512.53;;;22.72;69.71
62791;BME280;48830;53.426;10.300;2024-02-14T00:03:39;101512.53;;;22.72;69.45
62791;BME280;48830;53.426;10.300;2024-02-14T00:06:05;101511.69;;;22.70;69.59
62791;BME280;48830;53.426;10.300;2024-02-14T00:08:31;101509.06;;;22.70;69.65
62791;BME280;48830;53.426;10.300;2024-02-14T00:10:56;101506.41;;;22.72;69.58
62791;BME280;48830;53.426;10.300;2024-02-14T00:13:22;101503.00;;;22.68;69.72
62791;BME280;48830;53.426;10.300;2024-02-14T00:15:47;101502.09;;;22.71;69.67
62791;BME280;48830;53.426;10.300;2024-02-14T00:18:13;101499.53;;;22.68;69.66
62791;BME280;48830;53.426;10.300;2024-02-14T00:20:40;101497.00;;;22.63;70.08
62791;BME280;48830;53.426;10.300;2024-02-14T00:23:05;101497.00;;;22.63;69.84
62791;BME280;48830;53.426;10.300;2024-02-14T00:25:31;101499.53;;;22.68;69.41
62791;BME280;48830;53.426;10.300;2024-02-14T00:27:56;101496.03;;;22.67;69.80
62791;BME280;48830;53.426;10.300;2024-02-14T00:30:26;101489.91;;;22.68;69.67
62791;BME280;48830;53.426;10.300;2024-02-14T00:32:51;101494.31;;;22.66;69.63
62791;BME280;48830;53.426;10.300;2024-02-14T00:35:17;101494.38;;;22.63;69.84
62791;BME280;48830;53.426;10.300;2024-02-14T00:37:42;101496.09;;;22.66;69.73
62791;BME280;48830;53.426;10.300;2024-02-14T00:40:08;101491.75;;;22.63;69.87
62791;BME280;48830;53.426;10.300;2024-02-14T00:42:34;101491.81;;;22.62;69.91
62791;BME280;48830;53.426;10.300;2024-02-14T00:44:59;101487.47;;;22.59;70.10
62791;BME280;48830;53.426;10.300;2024-02-14T00:47:24;101493.56;;;22.61;70.21
62791;BME280;48830;53.426;10.300;2024-02-14T00:49:50;101489.19;;;22.62;69.45
62791;BME280;48830;53.426;10.300;2024-02-14T00:52:15;101492.72;;;22.61;70.09
62791;BME280;48830;53.426;10.300;2024-02-14T00:54:42;101487.38;;;22.64;69.67
62791;BME280;48830;53.426;10.300;2024-02-14T00:57:07;101478.66;;;22.63;69.58
62791;BME280;48830;53.426;10.300;2024-02-14T00:59:33;101475.25;;;22.60;70.09
62791;BME280;48830;53.426;10.300;2024-02-14T01:01:58;101475.22;;;22.61;69.57
62791;BME280;48830;53.426;10.300;2024-02-14T01:04:24;101472.59;;;22.61;69.80
62791;BME280;48830;53.426;10.300;2024-02-14T01:06:50;101473.50;;;22.60;69.97
62791;BME280;48830;53.426;10.300;2024-02-14T01:09:18;101475.25;;;22.60;69.71
62791;BME280;48830;53.426;10.300;2024-02-14T01:11:43;101470.09;;;22.57;69.90
62791;BME280;48830;53.426;10.300;2024-02-14T01:14:09;101470.09;;;22.57;70.00
62791;BME280;48830;53.426;10.300;2024-02-14T01:16:42;101472.59;;;22.61;69.76
62791;BME280;48830;53.426;10.300;2024-02-14T01:19:07;101468.13;;;22.65;69.89
62791;BME280;48830;53.426;10.300;2024-02-14T01:21:33;101469.09;;;22.62;69.51
62791;BME280;48830;53.426;10.300;2024-02-14T01:23:58;101466.47;;;22.62;69.58
62791;BME280;48830;53.426;10.300;2024-02-14T01:26:23;101467.44;;;22.58;70.01
62791;BME280;48830;53.426;10.300;2024-02-14T01:28:49;101465.66;;;22.60;69.66
62791;BME280;48830;53.426;10.300;2024-02-14T01:31:14;101462.13;;;22.61;69.49
62791;BME280;48830;53.426;10.300;2024-02-14T01:33:40;101458.66;;;22.59;69.71
62791;BME280;48830;53.426;10.300;2024-02-14T01:36:05;101457.91;;;22.54;69.72
62791;BME280;48830;53.426;10.300;2024-02-14T01:38:31;101450.03;;;22.54;69.99
62791;BME280;48830;53.426;10.300;2024-02-14T01:41:01;101446.56;;;22.55;69.87
62791;BME280;48830;53.426;10.300;2024-02-14T01:43:28;101447.47;;;22.52;70.11
62791;BME280;48830;53.426;10.300;2024-02-14T01:45:53;101444.03;;;22.50;70.02
62791;BME280;48830;53.426;10.300;2024-02-14T01:48:18;101444.03;;;22.50;70.23
62791;BME280;48830;53.426;10.300;2024-02-14T01:50:44;101433.56;;;22.50;70.04
62791;BME280;48830;53.426;10.300;2024-02-14T01:53:11;101428.28;;;22.52;69.94
62791;BME280;48830;53.426;10.300;2024-02-14T01:55:37;101428.16;;;22.57;69.47
62791;BME280;48830;53.426;10.300;2024-02-14T01:58:02;101430.03;;;22.51;69.81
62791;BME280;48830;53.426;10.300;2024-02-14T02:00:30;101430.03;;;22.51;69.91
62791;BME280;48830;53.426;10.300;2024-02-14T02:02:58;101423.94;;;22.51;69.86
62791;BME280;48830;53.426;10.300;2024-02-14T02:05:24;101423.03;;;22.52;69.62
62791;BME280;48830;53.426;10.300;2024-02-14T02:07:49;101420.41;;;22.52;70.09
62791;BME280;48830;53.426;10.300;2024-02-14T02:10:15;101424.00;;;22.48;70.09
62791;BME280;48830;53.426;10.300;2024-02-14T02:12:41;101422.22;;;22.48;70.17
62791;BME280;48830;53.426;10.300;2024-02-14T02:15:08;101423.22;;;22.44;70.01
62791;BME280;48830;53.426;10.300;2024-02-14T02:17:39;101411.84;;;22.44;69.95
62791;BME280;48830;53.426;10.300;2024-02-14T02:20:05;101410.13;;;22.43;70.37
62791;BME280;48830;53.426;10.300;2024-02-14T02:22:32;101405.75;;;22.43;70.05
62791;BME280;48830;53.426;10.300;2024-02-14T02:25:01;101405.75;;;22.45;70.15
62791;BME280;48830;53.426;10.300;2024-02-14T02:27:26;101399.59;;;22.46;70.00
62791;BME280;48830;53.426;10.300;2024-02-14T02:29:52;101400.47;;;22.46;70.20
62791;BME280;48830;53.426;10.300;2024-02-14T02:32:17;101388.31;;;22.42;69.68
62791;BME280;48830;53.426;10.300;2024-02-14T02:34:43;101394.47;;;22.41;69.91
62791;BME280;48830;53.426;10.300;2024-02-14T02:37:11;101390.84;;;22.47;70.26
62791;BME280;48830;53.426;10.300;2024-02-14T02:39:37;101386.66;;;22.40;70.26
62791;BME280;48830;53.426;10.300;2024-02-14T02:42:03;101371.75;;;22.42;69.98
62791;BME280;48830;53.426;10.300;2024-02-14T02:44:28;101377.88;;;22.41;70.30
62791;BME280;48830;53.426;10.300;2024-02-14T02:46:54;101370.03;;;22.41;69.86
62791;BME280;48830;53.426;10.300;2024-02-14T02:49:21;101364.78;;;22.41;69.76
62791;BME280;48830;53.426;10.300;2024-02-14T02:51:46;101368.38;;;22.37;69.93
62791;BME280;48830;53.426;10.300;2024-02-14T02:54:13;101358.75;;;22.39;70.01
62791;BME280;48830;53.426;10.300;2024-02-14T02:56:38;101359.59;;;22.39;69.99
62791;BME280;48830;53.426;10.300;2024-02-14T02:59:06;101354.38;;;22.38;70.06
62791;BME280;48830;53.426;10.300;2024-02-14T03:01:37;101352.59;;;22.40;70.00
62791;BME280;48830;53.426;10.300;2024-02-14T03:04:03;101353.53;;;22.37;70.14
62791;BME280;48830;53.426;10.300;2024-02-14T03:06:29;101349.13;;;22.38;69.90
62791;BME280;48830;53.426;10.300;2024-02-14T03:08:55;101349.94;;;22.41;69.94
62791;BME280;48830;53.426;10.300;2024-02-14T03:11:22;101352.59;;;22.40;70.28
62791;BME280;48830;53.426;10.300;2024-02-14T03:13:48;101347.25;;;22.43;70.05
62791;BME280;48830;53.426;10.300;2024-02-14T03:16:16;101343.75;;;22.44;69.82
62791;BME280;48830;53.426;10.300;2024-02-14T03:18:43;101346.28;;;22.47;69.65
62791;BME280;48830;53.426;10.300;2024-02-14T03:21:09;101344.69;;;22.41;70.31
62791;BME280;48830;53.426;10.300;2024-02-14T03:23:34;101342.03;;;22.43;70.19
62791;BME280;48830;53.426;10.300;2024-02-14T03:26:00;101340.19;;;22.46;70.11
62791;BME280;48830;53.426;10.300;2024-02-14T03:28:25;101339.28;;;22.47;69.44
62791;BME280;48830;53.426;10.300;2024-02-14T03:30:52;101338.50;;;22.44;69.73
62791;BME280;48830;53.426;10.300;2024-02-14T03:33:17;101332.38;;;22.45;69.71
62791;BME280;48830;53.426;10.300;2024-02-14T03:35:43;101331.47;;;22.46;69.20
62791;BME280;48830;53.426;10.300;2024-02-14T03:38:08;101330.53;;;22.48;69.48
62791;BME280;48830;53.426;10.300;2024-02-14T03:40:34;101323.53;;;22.49;69.53
62791;BME280;48830;53.426;10.300;2024-02-14T03:43:01;101319.19;;;22.48;69.98
62791;BME280;48830;53.426;10.300;2024-02-14T03:45:27;101314.81;;;22.48;69.70
62791;BME280;48830;53.426;10.300;2024-02-14T03:47:55;101312.25;;;22.47;69.63
62791;BME280;48830;53.426;10.300;2024-02-14T03:50:22;101305.19;;;22.49;69.52
62791;BME280;48830;53.426;10.300;2024-02-14T03:52:47;101305.97;;;22.52;69.67
62791;BME280;48830;53.426;10.300;2024-02-14T03:55:14;101307.69;;;22.55;69.54
62791;BME280;48830;53.426;10.300;2024-02-14T03:57:40;101309.50;;;22.51;69.43
62791;BME280;48830;53.426;10.300;2024-02-14T04:00:06;101298.16;;;22.51;69.67
62791;BME280;48830;53.426;10.300;2024-02-14T04:02:39;101302.44;;;22.55;69.64
62791;BME280;48830;53.426;10.300;2024-02-14T04:05:05;101305.91;;;22.56;69.46
62791;BME280;48830;53.426;10.300;2024-02-14T04:07:32;101298.94;;;22.54;69.29
62791;BME280;48830;53.426;10.300;2024-02-14T04:09:59;101305.06;;;22.55;69.40
62791;BME280;48830;53.426;10.300;2024-02-14T04:12:24;101299.81;;;22.55;69.25
62791;BME280;48830;53.426;10.300;2024-02-14T04:14:50;101301.47;;;22.58;69.46
62791;BME280;48830;53.426;10.300;2024-02-14T04:17:15;101298.81;;;22.59;68.99
62791;BME280;48830;53.426;10.300;2024-02-14T04:19:41;101288.44;;;22.56;69.44
62791;BME280;48830;53.426;10.300;2024-02-14T04:22:07;101300.56;;;22.60;69.18
62791;BME280;48830;53.426;10.300;2024-02-14T04:24:34;101295.25;;;22.62;69.25
62791;BME280;48830;53.426;10.300;2024-02-14T04:27:00;101283.94;;;22.61;69.00
62791;BME280;48830;53.426;10.300;2024-02-14T04:29:27;101286.50;;;22.63;69.16
62791;BME280;48830;53.426;10.300;2024-02-14T04:31:55;101280.44;;;22.61;69.43
62791;BME280;48830;53.426;10.300;2024-02-14T04:34:21;101288.31;;;22.61;69.15
62791;BME280;48830;53.426;10.300;2024-02-14T04:36:46;101289.06;;;22.64;69.51
62791;BME280;48830;53.426;10.300;2024-02-14T04:39:12;101282.97;;;22.64;69.34
62791;BME280;48830;53.426;10.300;2024-02-14T04:41:37;101282.91;;;22.67;69.00
62791;BME280;48830;53.426;10.300;2024-02-14T04:44:04;101275.00;;;22.68;69.17
62791;BME280;48830;53.426;10.300;2024-02-14T04:46:33;101275.84;;;22.69;68.80
62791;BME280;48830;53.426;10.300;2024-02-14T04:49:00;101283.66;;;22.70;69.23
62791;BME280;48830;53.426;10.300;2024-02-14T04:51:31;101278.34;;;22.73;68.74
62791;BME280;48830;53.426;10.300;2024-02-14T04:53:57;101276.63;;;22.72;69.06
62791;BME280;48830;53.426;10.300;2024-02-14T04:56:27;101279.19;;;22.74;68.78
62791;BME280;48830;53.426;10.300;2024-02-14T04:58:55;101275.72;;;22.73;68.61
62791;BME280;48830;53.426;10.300;2024-02-14T05:01:21;101275.72;;;22.73;68.83
62791;BME280;48830;53.426;10.300;2024-02-14T05:03:46;101269.56;;;22.74;69.08
62791;BME280;48830;53.426;10.300;2024-02-14T05:06:12;101266.06;;;22.75;68.54
62791;BME280;48830;53.426;10.300;2024-02-14T05:08:37;101266.06;;;22.75;68.90
62791;BME280;48830;53.426;10.300;2024-02-14T05:11:03;101266.06;;;22.75;68.69
62791;BME280;48830;53.426;10.300;2024-02-14T05:13:30;101260.75;;;22.78;68.42
62791;BME280;48830;53.426;10.300;2024-02-14T05:15:55;101259.78;;;22.81;68.47
62791;BME280;48830;53.426;10.300;2024-02-14T05:18:21;101248.44;;;22.80;68.80
62791;BME280;48830;53.426;10.300;2024-02-14T05:20:47;101244.88;;;22.83;68.17
62791;BME280;48830;53.426;10.300;2024-02-14T05:23:12;101251.84;;;22.84;68.68
62791;BME280;48830;53.426;10.300;2024-02-14T05:25:38;101249.22;;;22.84;68.75
62791;BME280;48830;53.426;10.300;2024-02-14T05:28:05;101250.16;;;22.82;68.47
62791;BME280;48830;53.426;10.300;2024-02-14T05:30:30;101248.38;;;22.84;68.59
62791;BME280;48830;53.426;10.300;2024-02-14T05:32:57;101238.81;;;22.81;68.52
62791;BME280;48830;53.426;10.300;2024-02-14T05:35:22;101236.13;;;22.84;68.60
62791;BME280;48830;53.426;10.300;2024-02-14T05:37:47;101234.34;;;22.85;68.69
62791;BME280;48830;53.426;10.300;2024-02-14T05:40:15;101222.03;;;22.87;68.36
62791;BME280;48830;53.426;10.300;2024-02-14T05:42:41;101229.06;;;22.88;68.15
62791;BME280;48830;53.426;10.300;2024-02-14T05:45:06;101228.19;;;22.87;68.49
62791;BME280;48830;53.426;10.300;2024-02-14T05:47:35;101225.53;;;22.89;68.13
62791;BME280;48830;53.426;10.300;2024-02-14T05:50:00;101234.25;;;22.89;68.03
62791;BME280;48830;53.426;10.300;2024-02-14T05:52:26;101231.63;;;22.89;68.11
62791;BME280;48830;53.426;10.300;2024-02-14T05:54:51;101228.97;;;22.91;68.11
62791;BME280;48830;53.426;10.300;2024-02-14T05:57:16;101229.88;;;22.90;68.32
62791;BME280;48830;53.426;10.300;2024-02-14T05:59:42;101227.16;;;22.93;67.98
62791;BME280;48830;53.426;10.300;2024-02-14T06:02:07;101220.09;;;22.95;68.35
62791;BME280;48830;53.426;10.300;2024-02-14T06:04:35;101215.78;;;22.94;67.86
62791;BME280;48830;53.426;10.300;2024-02-14T06:07:01;101214.91;;;22.93;68.14
62791;BME280;48830;53.426;10.300;2024-02-14T06:09:26;101223.63;;;22.94;68.33
62791;BME280;48830;53.426;10.300;2024-02-14T06:11:52;101221.94;;;22.93;67.92
62791;BME280;48830;53.426;10.300;2024-02-14T06:14:18;101210.53;;;22.94;67.81
62791;BME280;48830;53.426;10.300;2024-02-14T06:16:44;101212.25;;;22.95;68.22
62791;BME280;48830;53.426;10.300;2024-02-14T06:19:09;101213.03;;;22.98;68.20
62791;BME280;48830;53.426;10.300;2024-02-14T06:21:36;101206.91;;;22.98;67.90
62791;BME280;48830;53.426;10.300;2024-02-14T06:24:01;101203.38;;;22.99;68.16
62791;BME280;48830;53.426;10.300;2024-02-14T06:26:30;101209.53;;;22.98;67.74
62791;BME280;48830;53.426;10.300;2024-02-14T06:28:56;101209.53;;;22.98;68.24
62791;BME280;48830;53.426;10.300;2024-02-14T06:31:22;101201.69;;;22.98;68.26
62791;BME280;48830;53.426;10.300;2024-02-14T06:33:48;101207.72;;;23.00;68.19
62791;BME280;48830;53.426;10.300;2024-02-14T06:36:13;101205.03;;;23.01;67.69
62791;BME280;48830;53.426;10.300;2024-02-14T06:38:39;101209.34;;;23.04;67.64
62791;BME280;48830;53.426;10.300;2024-02-14T06:41:05;101207.63;;;23.03;68.17
62791;BME280;48830;53.426;10.300;2024-02-14T06:43:31;101212.97;;;23.00;67.64
62791;BME280;48830;53.426;10.300;2024-02-14T06:45:56;101212.84;;;23.03;68.19
62791;BME280;48830;53.426;10.300;2024-02-14T06:48:22;101209.44;;;23.01;67.71
62791;BME280;48830;53.426;10.300;2024-02-14T06:50:49;101207.66;;;23.01;68.02
62791;BME280;48830;53.426;10.300;2024-02-14T06:53:15;101210.22;;;23.04;68.05
62791;BME280;48830;53.426;10.300;2024-02-14T06:55:40;101213.69;;;23.05;67.65
62791;BME280;48830;53.426;10.300;2024-02-14T06:58:06;101209.31;;;23.05;67.98
62791;BME280;48830;53.426;10.300;2024-02-14T07:00:31;101211.06;;;23.05;67.61
62791;BME280;48830;53.426;10.300;2024-02-14T07:02:56;101211.13;;;23.03;68.06
62791;BME280;48830;53.426;10.300;2024-02-14T07:05:22;101217.16;;;23.05;67.65
62791;BME280;48830;53.426;10.300;2024-02-14T07:07:47;101207.63;;;23.03;68.14
62791;BME280;48830;53.426;10.300;2024-02-14T07:10:12;101212.78;;;23.06;67.85
62791;BME280;48830;53.426;10.300;2024-02-14T07:12:38;101212.84;;;23.04;67.99
62791;BME280;48830;53.426;10.300;2024-02-14T07:15:05;101215.41;;;23.06;67.72
62791;BME280;48830;53.426;10.300;2024-02-14T07:17:31;101208.34;;;23.08;67.85
62791;BME280;48830;53.426;10.300;2024-02-14T07:19:56;101217.94;;;23.09;67.65
62791;BME280;48830;53.426;10.300;2024-02-14T07:22:21;101210.09;;;23.09;67.49
62791;BME280;48830;53.426;10.300;2024-02-14T07:24:47;101204.84;;;23.08;67.73
62791;BME280;48830;53.426;10.300;2024-02-14T07:27:14;101212.72;;;23.08;67.65
62791;BME280;48830;53.426;10.300;2024-02-14T07:29:40;101214.50;;;23.07;67.54
62791;BME280;48830;53.426;10.300;2024-02-14T07:32:05;101210.88;;;23.11;68.03
62791;BME280;48830;53.426;10.300;2024-02-14T07:34:34;101207.47;;;23.09;67.67
62791;BME280;48830;53.426;10.300;2024-02-14T07:36:59;101207.34;;;23.12;68.09
62791;BME280;48830;53.426;10.300;2024-02-14T07:39:24;101208.31;;;23.10;67.55
62791;BME280;48830;53.426;10.300;2024-02-14T07:41:50;101214.31;;;23.13;67.50
62791;BME280;48830;53.426;10.300;2024-02-14T07:44:16;101210.81;;;23.14;67.57
62791;BME280;48830;53.426;10.300;2024-02-14T07:46:41;101209.91;;;23.14;67.86
62791;BME280;48830;53.426;10.300;2024-02-14T07:49:06;101209.06;;;23.13;68.03
62791;BME280;48830;53.426;10.300;2024-02-14T07:51:33;101209.06;;;23.13;68.24
62791;BME280;48830;53.426;10.300;2024-02-14T07:54:05;101208.25;;;23.11;67.79
62791;BME280;48830;53.426;10.300;2024-02-14T07:56:31;101209.91;;;23.15;67.49
62791;BME280;48830;53.426;10.300;2024-02-14T07:58:57;101207.34;;;23.12;68.05
62791;BME280;48830;53.426;10.300;2024-02-14T08:01:23;101208.22;;;23.13;67.52
62791;BME280;48830;53.426;10.300;2024-02-14T08:03:48;101203.75;;;23.16;68.06
62791;BME280;48830;53.426;10.300;2024-02-14T08:06:14;101199.34;;;23.17;67.90
62791;BME280;48830;53.426;10.300;2024-02-14T08:08:39;101209.06;;;23.13;67.54
62791;BME280;48830;53.426;10.300;2024-02-14T08:11:05;101200.25;;;23.16;67.84
62791;BME280;48830;53.426;10.300;2024-02-14T08:13:31;101198.53;;;23.15;67.66
62791;BME280;48830;53.426;10.300;2024-02-14T08:15:56;101202.88;;;23.16;68.00
62791;BME280;48830;53.426;10.300;2024-02-14T08:18:24;101202.03;;;23.15;67.89
62791;BME280;48830;53.426;10.300;2024-02-14T08:20:49;101198.50;;;23.16;67.65
62791;BME280;48830;53.426;10.300;2024-02-14T08:23:15;101198.50;;;23.16;67.73
62791;BME280;48830;53.426;10.300;2024-02-14T08:25:40;101200.19;;;23.17;67.43
62791;BME280;48830;53.426;10.300;2024-02-14T08:28:09;101200.41;;;23.11;68.11
62791;BME280;48830;53.426;10.300;2024-02-14T08:30:34;101191.63;;;23.12;67.75
62791;BME280;48830;53.426;10.300;2024-02-14T08:33:00;101193.31;;;23.13;68.03
62791;BME280;48830;53.426;10.300;2024-02-14T08:35:25;101198.50;;;23.16;68.18
62791;BME280;48830;53.426;10.300;2024-02-14T08:37:51;101195.78;;;23.19;67.66
62791;BME280;48830;53.426;10.300;2024-02-14T08:40:16;101202.75;;;23.20;67.79
62791;BME280;48830;53.426;10.300;2024-02-14T08:42:42;101200.06;;;23.22;67.90
62791;BME280;48830;53.426;10.300;2024-02-14T08:45:08;101198.31;;;23.22;67.65
62791;BME280;48830;53.426;10.300;2024-02-14T08:47:33;101200.00;;;23.23;67.48
62791;BME280;48830;53.426;10.300;2024-02-14T08:49:59;101198.41;;;23.19;67.73
62791;BME280;48830;53.426;10.300;2024-02-14T08:52:25;101208.00;;;23.19;67.88
62791;BME280;48830;53.426;10.300;2024-02-14T08:54:51;101207.88;;;23.23;67.51
62791;BME280;48830;53.426;10.300;2024-02-14T08:57:16;101201.03;;;23.19;67.82
62791;BME280;48830;53.426;10.300;2024-02-14T08:59:43;101200.31;;;23.14;68.06
62791;BME280;48830;53.426;10.300;2024-02-14T09:02:12;101203.66;;;23.19;67.92
62791;BME280;48830;53.426;10.300;2024-02-14T09:04:39;101200.19;;;23.17;67.85
62791;BME280;48830;53.426;10.300;2024-02-14T09:07:04;101199.44;;;23.14;67.89
62791;BME280;48830;53.426;10.300;2024-02-14T09:09:29;101196.97;;;23.09;68.60
62791;BME280;48830;53.426;10.300;2024-02-14T09:11:55;101205.56;;;23.14;68.65
62791;BME280;48830;53.426;10.300;2024-02-14T09:14:20;101202.69;;;23.22;69.14
62791;BME280;48830;53.426;10.300;2024-02-14T09:16:45;101197.38;;;23.23;68.94
62791;BME280;48830;53.426;10.300;2024-02-14T09:19:11;101198.25;;;23.24;68.83
62791;BME280;48830;53.426;10.300;2024-02-14T09:21:37;101200.00;;;23.23;68.54
62791;BME280;48830;53.426;10.300;2024-02-14T09:24:04;101199.94;;;23.26;68.48
62791;BME280;48830;53.426;10.300;2024-02-14T09:26:30;101192.78;;;23.31;68.38
62791;BME280;48830;53.426;10.300;2024-02-14T09:28:55;101199.81;;;23.29;68.14
62791;BME280;48830;53.426;10.300;2024-02-14T09:31:21;101199.81;;;23.29;68.34
62791;BME280;48830;53.426;10.300;2024-02-14T09:33:48;101202.22;;;23.37;68.31
62791;BME280;48830;53.426;10.300;2024-02-14T09:36:14;101197.91;;;23.35;68.02
62791;BME280;48830;53.426;10.300;2024-02-14T09:38:40;101202.09;;;23.40;68.47
62791;BME280;48830;53.426;10.300;2024-02-14T09:41:36;101197.84;;;23.38;67.95
62791;BME280;48830;53.426;10.300;2024-02-14T09:44:03;101196.84;;;23.40;68.88
62791;BME280;48830;53.426;10.300;2024-02-14T09:46:28;101195.06;;;23.42;68.21
62791;BME280;48830;53.426;10.300;2024-02-14T09:48:56;101201.94;;;23.46;68.11
62791;BME280;48830;53.426;10.300;2024-02-14T09:51:23;101201.06;;;23.46;68.16
62791;BME280;48830;53.426;10.300;2024-02-14T09:53:50;101201.25;;;23.40;67.93
62791;BME280;48830;53.426;10.300;2024-02-14T09:56:16;101199.25;;;23.48;69.06
62791;BME280;48830;53.426;10.300;2024-02-14T09:58:45;101207.06;;;23.49;68.21
62791;BME280;48830;53.426;10.300;2024-02-14T10:01:15;101202.69;;;23.50;68.22
62791;BME280;48830;53.426;10.300;2024-02-14T10:03:40;101200.88;;;23.52;68.67
62791;BME280;48830;53.426;10.300;2024-02-14T10:06:06;101205.31;;;23.50;68.41
62791;BME280;48830;53.426;10.300;2024-02-14T10:08:32;101205.44;;;23.45;68.18
62791;BME280;48830;53.426;10.300;2024-02-14T10:10:57;101207.84;;;23.53;68.56
62791;BME280;48830;53.426;10.300;2024-02-14T10:13:27;101207.66;;;23.59;68.24
62791;BME280;48830;53.426;10.300;2024-02-14T10:15:52;101210.66;;;23.47;68.31
62791;BME280;48830;53.426;10.300;2024-02-14T10:18:17;101207.28;;;23.43;67.81
62791;BME280;48830;53.426;10.300;2024-02-14T10:20:55;101213.31;;;23.45;68.23
62791;BME280;48830;53.426;10.300;2024-02-14T10:23:21;101208.91;;;23.47;68.38
62791;BME280;48830;53.426;10.300;2024-02-14T10:25:54;101219.34;;;23.49;68.17
62791;BME280;48830;53.426;10.300;2024-02-14T10:28:21;101219.41;;;23.47;68.57
62791;BME280;48830;53.426;10.300;2024-02-14T10:30:48;101224.59;;;23.49;68.26
62791;BME280;48830;53.426;10.300;2024-02-14T10:33:15;101233.31;;;23.49;68.15
62791;BME280;48830;53.426;10.300;2024-02-14T10:35:41;101226.31;;;23.50;68.26
62791;BME280;48830;53.426;10.300;2024-02-14T10:38:08;101225.31;;;23.54;68.63
62791;BME280;48830;53.426;10.300;2024-02-14T10:40:35;101232.22;;;23.56;68.59
62791;BME280;48830;53.426;10.300;2024-02-14T10:43:02;101224.44;;;23.53;68.18
62791;BME280;48830;53.426;10.300;2024-02-14T10:45:27;101232.31;;;23.53;68.22
62791;BME280;48830;53.426;10.300;2024-02-14T10:47:53;101229.63;;;23.55;68.43
62791;BME280;48830;53.426;10.300;2024-02-14T10:50:22;101231.31;;;23.57;68.27
62791;BME280;48830;53.426;10.300;2024-02-14T10:52:51;101229.56;;;23.58;68.40
62791;BME280;48830;53.426;10.300;2024-02-14T10:55:20;101231.34;;;23.56;68.75
62791;BME280;48830;53.426;10.300;2024-02-14T10:57:53;101225.16;;;23.58;68.76
62791;BME280;48830;53.426;10.300;2024-02-14T11:00:20;101227.72;;;23.60;68.13
62791;BME280;48830;53.426;10.300;2024-02-14T11:02:46;101226.03;;;23.59;68.57
62791;BME280;48830;53.426;10.300;2024-02-14T11:05:15;101233.84;;;23.61;68.65
62791;BME280;48830;53.426;10.300;2024-02-14T11:07:47;101239.22;;;23.56;68.71
62791;BME280;48830;53.426;10.300;2024-02-14T11:10:16;101234.81;;;23.56;68.27
62791;BME280;48830;53.426;10.300;2024-02-14T11:12:41;101250.56;;;23.58;68.52
62791;BME280;48830;53.426;10.300;2024-02-14T11:15:23;101237.66;;;22.93;62.60
62791;BME280;48830;53.426;10.300;2024-02-14T11:17:50;101236.31;;;22.11;63.08
62791;BME280;48830;53.426;10.300;2024-02-14T11:20:31;101227.03;;;21.98;65.86
62791;BME280;48830;53.426;10.300;2024-02-14T11:23:01;101235.84;;;22.30;66.73
62791;BME280;48830;53.426;10.300;2024-02-14T11:25:33;101235.06;;;22.59;67.67
62791;BME280;48830;53.426;10.300;2024-02-14T11:28:13;101233.72;;;22.76;68.26
62791;BME280;48830;53.426;10.300;2024-02-14T11:30:40;101230.78;;;22.89;67.97
62791;BME280;48830;53.426;10.300;2024-02-14T11:35:42;101233.75;;;23.06;68.01
62791;BME280;48830;53.426;10.300;2024-02-14T11:38:08;101230.16;;;23.10;67.94
62791;BME280;48830;53.426;10.300;2024-02-14T11:40:38;101238.69;;;23.17;67.91
62791;BME280;48830;53.426;10.300;2024-02-14T11:43:13;101238.56;;;23.21;67.73
62791;BME280;48830;53.426;10.300;2024-02-14T11:45:42;101241.06;;;23.24;68.29
62791;BME280;48830;53.426;10.300;2024-02-14T11:48:12;101238.41;;;23.26;68.48
62791;BME280;48830;53.426;10.300;2024-02-14T11:50:39;101241.00;;;23.27;68.39
62791;BME280;48830;53.426;10.300;2024-02-14T11:53:05;101244.47;;;23.28;68.35
62791;BME280;48830;53.426;10.300;2024-02-14T11:55:34;101246.91;;;23.34;68.36
62791;BME280;48830;53.426;10.300;2024-02-14T11:57:59;101251.25;;;23.35;68.79
62791;BME280;48830;53.426;10.300;2024-02-14T12:00:25;101252.16;;;23.34;68.95
62791;BME280;48830;53.426;10.300;2024-02-14T12:02:51;101248.63;;;23.35;67.55
62791;BME280;48830;53.426;10.300;2024-02-14T12:05:17;101255.50;;;22.78;66.18
62791;BME280;48830;53.426;10.300;2024-02-14T12:07:44;101254.72;;;22.75;67.68
62791;BME280;48830;53.426;10.300;2024-02-14T12:10:10;101259.50;;;22.92;68.43
62791;BME280;48830;53.426;10.300;2024-02-14T12:12:38;101255.69;;;23.03;68.44
62791;BME280;48830;53.426;10.300;2024-02-14T12:15:03;101264.19;;;23.12;68.51
62791;BME280;48830;53.426;10.300;2024-02-14T12:17:31;101257.03;;;23.17;68.52
62791;BME280;48830;53.426;10.300;2024-02-14T12:20:08;101266.63;;;23.18;68.68
62791;BME280;48830;53.426;10.300;2024-02-14T12:22:35;101257.84;;;23.19;68.75
62791;BME280;48830;53.426;10.300;2024-02-14T12:25:02;101262.78;;;23.29;68.74
62791;BME280;48830;53.426;10.300;2024-02-14T12:27:32;101263.56;;;23.33;69.01
62791;BME280;48830;53.426;10.300;2024-02-14T12:29:57;101270.31;;;23.40;68.70
62791;BME280;48830;53.426;10.300;2024-02-14T12:32:23;101274.72;;;23.40;68.67
62791;BME280;48830;53.426;10.300;2024-02-14T12:34:48;101269.47;;;23.40;69.45
62791;BME280;48830;53.426;10.300;2024-02-14T12:37:14;101268.72;;;23.36;69.34
62791;BME280;48830;53.426;10.300;2024-02-14T12:39:40;101271.19;;;23.41;69.68